PAL1181 RPVE-RPLL
Flight info
| Callsign | PAL1181 |
|---|---|
| Flight time | N/A |
| Altitude | 26000 |
| Route | MINOR8A MINOR B473 LAIYA LAIYA5R |
| Aircraft | A321/M-SDE3FGHIRWY/LB1 |
Departure
| Time | 2026-04-26 14:45 |
|---|---|
| Airport | Godofredo P. Ramos Airport (RPVE) |
Arrival
| Time | N/A |
|---|---|
| Airport | Ninoy Aquino International Airport (RPLL) |
| Time | Latitude | Longitude | Altitude | Speed | Heading |
|---|---|---|---|---|---|
| 2026-04-26 14:35 | 11.92659 | 121.96375 | 14 ft | 0 kts | 150° |
| 2026-04-26 14:36 | 11.92669 | 121.96370 | 14 ft | 2 kts | 163° |
| 2026-04-26 14:36 | 11.92684 | 121.96368 | 14 ft | 2 kts | 191° |
| 2026-04-26 14:36 | 11.92698 | 121.96375 | 14 ft | 2 kts | 216° |
| 2026-04-26 14:37 | 11.92707 | 121.96384 | 14 ft | 1 kts | 239° |
| 2026-04-26 14:37 | 11.92710 | 121.96390 | 14 ft | 1 kts | 244° |
| 2026-04-26 14:37 | 11.92711 | 121.96391 | 14 ft | 0 kts | 244° |
| 2026-04-26 14:39 | 11.92706 | 121.96382 | 14 ft | 2 kts | 244° |
| 2026-04-26 14:39 | 11.92697 | 121.96362 | 14 ft | 3 kts | 245° |
| 2026-04-26 14:39 | 11.92682 | 121.96330 | 14 ft | 6 kts | 243° |
| 2026-04-26 14:40 | 11.92660 | 121.96287 | 14 ft | 8 kts | 242° |
| 2026-04-26 14:40 | 11.92630 | 121.96229 | 14 ft | 9 kts | 252° |
| 2026-04-26 14:40 | 11.92677 | 121.96189 | 14 ft | 10 kts | 329° |
| 2026-04-26 14:40 | 11.92744 | 121.96152 | 14 ft | 11 kts | 333° |
| 2026-04-26 14:41 | 11.92801 | 121.96116 | 14 ft | 11 kts | 300° |
| 2026-04-26 14:41 | 11.92782 | 121.96056 | 14 ft | 12 kts | 241° |
| 2026-04-26 14:41 | 11.92741 | 121.95976 | 14 ft | 13 kts | 243° |
| 2026-04-26 14:41 | 11.92697 | 121.95888 | 14 ft | 14 kts | 243° |
| 2026-04-26 14:42 | 11.92650 | 121.95795 | 14 ft | 15 kts | 243° |
| 2026-04-26 14:42 | 11.92600 | 121.95696 | 14 ft | 15 kts | 243° |
| 2026-04-26 14:42 | 11.92549 | 121.95596 | 14 ft | 16 kts | 242° |
| 2026-04-26 14:42 | 11.92497 | 121.95491 | 14 ft | 16 kts | 243° |
| 2026-04-26 14:43 | 11.92446 | 121.95387 | 14 ft | 17 kts | 243° |
| 2026-04-26 14:43 | 11.92390 | 121.95278 | 14 ft | 17 kts | 242° |
| 2026-04-26 14:43 | 11.92335 | 121.95170 | 14 ft | 17 kts | 238° |
| 2026-04-26 14:43 | 11.92276 | 121.95074 | 14 ft | 12 kts | 219° |
| 2026-04-26 14:44 | 11.92238 | 121.95040 | 14 ft | 9 kts | 234° |
| 2026-04-26 14:44 | 11.92253 | 121.95005 | 14 ft | 6 kts | 13° |
| 2026-04-26 14:44 | 11.92278 | 121.95055 | 14 ft | 9 kts | 67° |
| 2026-04-26 14:44 | 11.92288 | 121.95074 | 14 ft | 0 kts | 64° |
| 2026-04-26 14:45 | 11.92299 | 121.95098 | 14 ft | 23 kts | 63° |
| 2026-04-26 14:45 | 11.92414 | 121.95325 | 14 ft | 83 kts | 62° |
| 2026-04-26 14:45 | 11.92976 | 121.96439 | 168 ft | 162 kts | 63° |
| 2026-04-26 14:45 | 11.93493 | 121.97464 | 854 ft | 170 kts | 63° |
| 2026-04-26 14:46 | 11.94026 | 121.98531 | 1592 ft | 180 kts | 63° |
| 2026-04-26 14:46 | 11.94609 | 121.99708 | 2256 ft | 196 kts | 63° |
| 2026-04-26 14:46 | 11.95183 | 122.00858 | 2677 ft | 210 kts | 63° |
| 2026-04-26 14:46 | 11.95930 | 122.02249 | 3055 ft | 232 kts | 53° |
| 2026-04-26 14:47 | 11.97152 | 122.03388 | 3421 ft | 253 kts | 30° |
| 2026-04-26 14:47 | 11.98714 | 122.04211 | 4040 ft | 264 kts | 25° |
| 2026-04-26 14:47 | 12.00372 | 122.05012 | 4856 ft | 267 kts | 25° |
| 2026-04-26 14:47 | 12.02078 | 122.05842 | 5685 ft | 270 kts | 25° |
| 2026-04-26 14:48 | 12.03751 | 122.06671 | 6468 ft | 273 kts | 26° |
| 2026-04-26 14:48 | 12.05456 | 122.07526 | 7244 ft | 276 kts | 26° |
| 2026-04-26 14:48 | 12.07180 | 122.08397 | 8005 ft | 279 kts | 26° |
| 2026-04-26 14:48 | 12.08756 | 122.09195 | 8676 ft | 282 kts | 26° |
| 2026-04-26 14:49 | 12.10232 | 122.09943 | 9285 ft | 284 kts | 26° |
| 2026-04-26 14:49 | 12.11652 | 122.10659 | 9852 ft | 287 kts | 26° |
| 2026-04-26 14:49 | 12.13541 | 122.11610 | 10531 ft | 292 kts | 26° |
| 2026-04-26 14:49 | 12.15351 | 122.12521 | 10852 ft | 308 kts | 26° |
| 2026-04-26 14:50 | 12.17235 | 122.13473 | 11136 ft | 324 kts | 26° |
| 2026-04-26 14:50 | 12.19322 | 122.14527 | 11429 ft | 339 kts | 26° |
| 2026-04-26 14:50 | 12.21448 | 122.15604 | 11894 ft | 348 kts | 26° |
| 2026-04-26 14:50 | 12.23630 | 122.16712 | 12546 ft | 351 kts | 26° |
| 2026-04-26 14:51 | 12.25818 | 122.17824 | 13180 ft | 354 kts | 26° |
| 2026-04-26 14:51 | 12.28016 | 122.18940 | 13780 ft | 357 kts | 26° |
| 2026-04-26 14:51 | 12.30246 | 122.20071 | 14370 ft | 360 kts | 26° |
| 2026-04-26 14:51 | 12.32468 | 122.21198 | 14940 ft | 363 kts | 26° |
| 2026-04-26 14:52 | 12.34809 | 122.22186 | 15472 ft | 367 kts | 13° |
| 2026-04-26 14:52 | 12.37355 | 122.22307 | 15985 ft | 370 kts | 351° |
| 2026-04-26 14:52 | 12.39768 | 122.21453 | 16518 ft | 372 kts | 330° |
| 2026-04-26 14:52 | 12.41943 | 122.20005 | 17077 ft | 374 kts | 325° |
| 2026-04-26 14:53 | 12.44074 | 122.18496 | 17564 ft | 377 kts | 325° |
| 2026-04-26 14:53 | 12.46249 | 122.16952 | 18054 ft | 380 kts | 325° |
| 2026-04-26 14:53 | 12.48410 | 122.15427 | 18535 ft | 383 kts | 325° |
| 2026-04-26 14:53 | 12.50602 | 122.13890 | 19006 ft | 386 kts | 326° |
| 2026-04-26 14:54 | 12.52829 | 122.12334 | 19467 ft | 388 kts | 326° |
| 2026-04-26 14:54 | 12.55078 | 122.10767 | 19919 ft | 391 kts | 326° |
| 2026-04-26 14:54 | 12.57333 | 122.09198 | 20360 ft | 393 kts | 326° |
| 2026-04-26 14:54 | 12.59567 | 122.07643 | 20783 ft | 396 kts | 326° |
| 2026-04-26 14:55 | 12.61854 | 122.06052 | 21204 ft | 398 kts | 326° |
| 2026-04-26 14:55 | 12.64162 | 122.04446 | 21616 ft | 401 kts | 326° |
| 2026-04-26 14:55 | 12.66456 | 122.02850 | 22016 ft | 403 kts | 326° |
| 2026-04-26 14:55 | 12.68790 | 122.01226 | 22407 ft | 406 kts | 326° |
| 2026-04-26 14:56 | 12.71106 | 121.99614 | 22783 ft | 408 kts | 326° |
| 2026-04-26 14:56 | 12.73499 | 121.97948 | 23161 ft | 410 kts | 326° |
| 2026-04-26 14:56 | 12.75853 | 121.96308 | 23522 ft | 413 kts | 326° |
| 2026-04-26 14:56 | 12.78227 | 121.94654 | 23876 ft | 415 kts | 326° |
| 2026-04-26 14:57 | 12.80623 | 121.92985 | 24224 ft | 417 kts | 326° |
| 2026-04-26 14:57 | 12.83014 | 121.91319 | 24560 ft | 419 kts | 326° |
| 2026-04-26 14:57 | 12.85409 | 121.89651 | 25001 ft | 418 kts | 326° |
| 2026-04-26 14:57 | 12.87790 | 121.87991 | 25593 ft | 413 kts | 326° |
| 2026-04-26 14:58 | 12.90170 | 121.86332 | 25882 ft | 417 kts | 326° |
| 2026-04-26 14:58 | 12.92584 | 121.84648 | 25938 ft | 425 kts | 326° |
| 2026-04-26 14:58 | 12.95007 | 121.82958 | 25963 ft | 428 kts | 326° |
| 2026-04-26 14:58 | 12.97457 | 121.81248 | 25975 ft | 428 kts | 326° |
| 2026-04-26 14:59 | 12.99889 | 121.79550 | 25981 ft | 429 kts | 326° |
| 2026-04-26 14:59 | 13.02332 | 121.77845 | 25983 ft | 429 kts | 326° |
| 2026-04-26 14:59 | 13.04804 | 121.76119 | 25984 ft | 429 kts | 326° |
| 2026-04-26 14:59 | 13.06440 | 121.74976 | 25985 ft | 429 kts | 326° |
| 2026-04-26 15:00 | 13.09698 | 121.72701 | 25985 ft | 429 kts | 326° |
| 2026-04-26 15:00 | 13.11901 | 121.71165 | 25985 ft | 429 kts | 326° |
| 2026-04-26 15:00 | 13.14116 | 121.69626 | 25986 ft | 429 kts | 326° |
| 2026-04-26 15:00 | 13.16584 | 121.67909 | 25986 ft | 429 kts | 326° |
| 2026-04-26 15:01 | 13.19055 | 121.66187 | 25986 ft | 429 kts | 326° |
| 2026-04-26 15:01 | 13.21100 | 121.64761 | 25986 ft | 429 kts | 326° |
| 2026-04-26 15:01 | 13.23664 | 121.62969 | 25986 ft | 429 kts | 326° |
| 2026-04-26 15:01 | 13.26071 | 121.61285 | 25986 ft | 429 kts | 326° |
| 2026-04-26 15:02 | 13.28438 | 121.59628 | 25986 ft | 429 kts | 326° |
| 2026-04-26 15:02 | 13.30751 | 121.58009 | 25894 ft | 429 kts | 326° |
| 2026-04-26 15:02 | 13.33141 | 121.56334 | 25647 ft | 427 kts | 326° |
| 2026-04-26 15:02 | 13.35579 | 121.54625 | 25398 ft | 425 kts | 326° |
| 2026-04-26 15:03 | 13.37989 | 121.52936 | 25150 ft | 423 kts | 326° |
| 2026-04-26 15:03 | 13.40190 | 121.51392 | 24922 ft | 421 kts | 326° |
| 2026-04-26 15:03 | 13.42594 | 121.49706 | 24671 ft | 420 kts | 326° |
| 2026-04-26 15:03 | 13.44657 | 121.48258 | 24446 ft | 418 kts | 326° |
| 2026-04-26 15:04 | 13.47070 | 121.46564 | 24173 ft | 417 kts | 326° |